Time;durP1;ratioP1;P1;durP2;ratioP2;P2;SDS_P1;SDS_P2;PMS_P1;PMS_P2;Temp;Humidity;BMP_temperature;BMP_pressure;BME280_temperature;BME280_humidity;BME280_pressure;Samples;Min_cycle;Max_cycle;Signal;HPM_P1;HPM_P2
2022/08/11 00:04:21;;;;;;;4.45;3.00;;;19.40;90.20;;;;;;5100665;28;20256;-51
2022/08/11 00:06:50;;;;;;;3.50;3.00;;;19.50;90.30;;;;;;5111036;28;20687;-52
2022/08/11 00:09:21;;;;;;;5.05;2.90;;;19.40;90.40;;;;;;5096848;28;20212;-52
2022/08/11 00:11:51;;;;;;;4.65;2.85;;;19.40;90.50;;;;;;5110349;28;20211;-51
2022/08/11 00:14:21;;;;;;;3.20;2.90;;;19.40;90.30;;;;;;5110621;28;20277;-52
2022/08/11 00:16:58;;;;;;;3.53;3.10;;;19.50;90.20;;;;;;5110022;28;20208;-51
2022/08/11 00:19:30;;;;;;;5.35;2.63;;;19.50;90.10;;;;;;5102871;28;20207;-52
2022/08/11 00:22:22;;;;;;;6.95;3.47;;;19.50;90.00;;;;;;5093187;28;20227;-50
2022/08/11 00:24:51;;;;;;;6.20;3.15;;;19.50;89.50;;;;;;5114306;28;20211;-52
2022/08/11 00:27:32;;;;;;;4.60;3.10;;;19.60;89.60;;;;;;5109480;28;20211;-51
2022/08/11 00:30:00;;;;;;;6.25;2.80;;;19.60;89.30;;;;;;5102280;28;20235;-52
2022/08/11 00:32:31;;;;;;;5.53;2.83;;;19.60;89.40;;;;;;5106195;28;20261;-52
2022/08/11 00:35:01;;;;;;;5.88;3.25;;;19.60;89.50;;;;;;5100867;28;20231;-51
2022/08/11 00:37:54;;;;;;;5.25;2.80;;;19.60;89.40;;;;;;5110216;28;20299;-51
2022/08/11 00:40:27;;;;;;;4.78;2.70;;;19.70;89.30;;;;;;5109674;28;20788;-52
2022/08/11 00:43:07;;;;;;;4.65;2.90;;;19.70;89.20;;;;;;5109798;28;20241;-52
2022/08/11 00:46:18;;;;;;;5.53;3.20;;;19.60;89.10;;;;;;5109540;28;20204;-52
2022/08/11 00:49:02;;;;;;;5.07;3.15;;;19.60;89.10;;;;;;5109552;28;20208;-51
2022/08/11 00:51:44;;;;;;;7.03;3.03;;;19.60;89.20;;;;;;5109605;28;20276;-52
2022/08/11 00:55:01;;;;;;;4.50;2.90;;;19.70;89.20;;;;;;5105922;28;20254;-52
2022/08/11 00:58:05;;;;;;;4.10;3.30;;;19.70;89.20;;;;;;5090132;28;20643;-52
2022/08/11 01:00:40;;;;;;;4.30;3.10;;;19.60;89.00;;;;;;5091520;28;20264;-51
2022/08/11 01:03:33;;;;;;;4.63;3.28;;;19.60;89.30;;;;;;5110033;28;20234;-52
2022/08/11 01:06:32;;;;;;;4.30;2.70;;;19.60;89.40;;;;;;5109144;28;20203;-52
2022/08/11 01:09:20;;;;;;;6.32;3.05;;;19.60;89.40;;;;;;5091119;28;20211;-51
2022/08/11 01:12:14;;;;;;;5.88;3.25;;;19.60;89.60;;;;;;5095386;28;20210;-51
2022/08/11 01:15:18;;;;;;;6.10;3.10;;;19.50;89.60;;;;;;5109635;28;20224;-52
2022/08/11 01:18:37;;;;;;;7.03;3.08;;;19.50;89.50;;;;;;5109322;28;20207;-52
2022/08/11 01:21:55;;;;;;;6.75;3.10;;;19.50;89.60;;;;;;5093867;28;20288;-52
2022/08/11 01:24:56;;;;;;;4.57;2.90;;;19.60;89.90;;;;;;5101504;28;20196;-51
2022/08/11 01:27:49;;;;;;;4.72;3.03;;;19.50;89.80;;;;;;5098128;28;20261;-52
2022/08/11 01:30:54;;;;;;;6.10;3.03;;;19.50;90.00;;;;;;5109691;28;20280;-52
2022/08/11 01:34:03;;;;;;;4.47;3.22;;;19.50;90.00;;;;;;5100335;28;20269;-52
2022/08/11 01:37:00;;;;;;;4.65;3.05;;;19.50;90.10;;;;;;5087161;28;20199;-52
2022/08/11 01:40:09;;;;;;;6.00;3.00;;;19.50;90.10;;;;;;5108790;28;20665;-52
2022/08/11 01:45:57;;;;;;;6.32;3.20;;;19.50;90.00;;;;;;5109477;28;20203;-51
2022/08/11 01:48:39;;;;;;;6.07;3.00;;;19.50;90.10;;;;;;5109279;28;20248;-52
2022/08/11 01:51:34;;;;;;;5.05;3.00;;;19.50;90.10;;;;;;5109302;28;20220;-52
2022/08/11 01:54:07;;;;;;;5.68;3.33;;;19.40;90.10;;;;;;5109447;28;20207;-52
2022/08/11 01:56:49;;;;;;;6.00;2.92;;;19.40;90.20;;;;;;5109103;28;20230;-52
2022/08/11 01:59:33;;;;;;;5.50;3.10;;;19.50;90.20;;;;;;5111378;28;20634;-52
2022/08/11 02:05:38;;;;;;;5.47;3.22;;;19.50;90.10;;;;;;5110786;28;20282;-52
2022/08/11 02:08:15;;;;;;;3.78;3.00;;;19.50;90.20;;;;;;5112642;28;20208;-52
2022/08/11 02:13:45;;;;;;;3.72;2.90;;;19.40;90.10;;;;;;5084738;28;20207;-52
2022/08/11 02:16:26;;;;;;;6.45;3.38;;;19.40;90.10;;;;;;5112010;28;20237;-52
2022/08/11 02:24:53;;;;;;;4.68;3.10;;;19.30;90.30;;;;;;5112014;28;20204;-52
2022/08/11 02:27:26;;;;;;;3.67;2.83;;;19.30;90.30;;;;;;5112061;28;20203;-52
2022/08/11 02:30:05;;;;;;;4.82;3.13;;;19.20;90.30;;;;;;5105997;28;20231;-52
2022/08/11 02:35:35;;;;;;;5.03;3.00;;;19.20;90.60;;;;;;5108407;28;20223;-52
2022/08/11 02:38:14;;;;;;;3.38;3.00;;;19.00;90.70;;;;;;5112739;28;20207;-51
2022/08/11 02:40:49;;;;;;;5.50;3.13;;;19.00;90.90;;;;;;5112161;28;20223;-52
2022/08/11 02:43:27;;;;;;;3.85;2.95;;;18.90;91.10;;;;;;5112261;28;20676;-51
2022/08/11 02:46:07;;;;;;;4.32;3.28;;;18.90;91.20;;;;;;5112329;28;20272;-52
2022/08/11 02:51:45;;;;;;;5.30;2.95;;;18.80;91.30;;;;;;5091130;28;20442;-52
2022/08/11 02:54:25;;;;;;;4.85;2.88;;;18.80;91.40;;;;;;5111330;28;20222;-52
2022/08/11 02:57:00;;;;;;;5.93;3.15;;;18.70;91.40;;;;;;5102710;28;20225;-52
2022/08/11 02:59:53;;;;;;;7.43;3.40;;;18.70;91.50;;;;;;5111851;28;20219;-51
2022/08/11 03:02:58;;;;;;;4.63;3.30;;;18.70;91.60;;;;;;5111858;28;20209;-52
2022/08/11 03:05:48;;;;;;;4.85;3.00;;;18.60;91.60;;;;;;5094066;28;20640;-52
2022/08/11 03:08:50;;;;;;;5.03;3.47;;;18.60;91.90;;;;;;5111168;28;20207;-52
2022/08/11 03:17:25;;;;;;;6.32;3.33;;;18.40;91.90;;;;;;5112167;28;20256;-52
2022/08/11 03:20:03;;;;;;;4.40;3.17;;;18.40;92.00;;;;;;5100398;28;20253;-52
2022/08/11 03:22:37;;;;;;;3.97;3.22;;;18.40;91.90;;;;;;5112226;28;20276;-52
2022/08/11 03:25:12;;;;;;;5.43;3.55;;;18.30;92.20;;;;;;5110775;28;20615;-51
2022/08/11 03:27:50;;;;;;;5.13;3.25;;;18.30;92.40;;;;;;5108263;28;20551;-51
2022/08/11 03:30:25;;;;;;;4.50;3.60;;;18.30;92.50;;;;;;5111356;28;20418;-51
2022/08/11 03:36:09;;;;;;;4.65;3.35;;;18.20;92.70;;;;;;5083062;28;20223;-51
2022/08/11 03:38:59;;;;;;;3.30;3.00;;;18.10;92.70;;;;;;5110873;28;20753;-52
2022/08/11 03:41:43;;;;;;;4.55;2.83;;;18.10;92.60;;;;;;5111319;28;20255;-51
2022/08/11 03:44:50;;;;;;;3.75;2.90;;;18.00;92.60;;;;;;5111268;28;20211;-51
2022/08/11 03:47:33;;;;;;;3.40;2.95;;;18.00;92.60;;;;;;5111092;28;20227;-52
2022/08/11 03:50:13;;;;;;;7.07;3.20;;;18.00;92.60;;;;;;5093486;28;20764;-51
2022/08/11 03:52:58;;;;;;;3.78;2.75;;;18.00;92.50;;;;;;5111998;28;20199;-52
2022/08/11 03:55:46;;;;;;;4.13;3.17;;;18.00;92.90;;;;;;5100454;28;20251;-51
2022/08/11 03:58:45;;;;;;;5.60;3.25;;;18.00;92.90;;;;;;5087431;28;20212;-51
2022/08/11 04:01:38;;;;;;;5.30;3.28;;;18.00;92.90;;;;;;5112090;28;20228;-51
2022/08/11 04:04:58;;;;;;;3.75;3.28;;;18.00;92.80;;;;;;5113085;28;20686;-52
2022/08/11 04:08:13;;;;;;;6.15;3.60;;;18.00;92.60;;;;;;5030273;28;20238;-52
2022/08/11 04:11:06;;;;;;;4.90;3.33;;;18.00;92.90;;;;;;4935272;29;20229;-51
2022/08/11 04:16:54;;;;;;;4.28;3.00;;;18.00;92.90;;;;;;5109620;28;20231;-52
2022/08/11 04:19:56;;;;;;;3.83;2.70;;;18.00;93.10;;;;;;5096452;28;20641;-51
2022/08/11 04:23:02;;;;;;;3.85;3.40;;;18.00;93.00;;;;;;5091082;28;20268;-53
2022/08/11 04:25:56;;;;;;;5.15;3.05;;;18.00;93.00;;;;;;5110749;28;20291;-51
2022/08/11 04:28:48;;;;;;;7.22;3.03;;;18.10;93.10;;;;;;5101613;28;20204;-52
2022/08/11 04:31:37;;;;;;;5.47;3.17;;;18.10;92.90;;;;;;5110530;28;20715;-52
2022/08/11 04:34:49;;;;;;;3.22;2.55;;;18.10;93.20;;;;;;5101287;28;20214;-52
2022/08/11 04:37:45;;;;;;;4.78;2.83;;;18.10;92.90;;;;;;5110601;28;20223;-50
2022/08/11 04:40:56;;;;;;;5.90;3.00;;;18.10;93.10;;;;;;5110354;28;20617;-52
2022/08/11 04:44:06;;;;;;;3.95;2.67;;;18.20;93.00;;;;;;5109919;28;20629;-52
2022/08/11 04:46:57;;;;;;;5.15;3.15;;;18.60;92.70;;;;;;5110255;28;20245;-52
2022/08/11 05:02:46;;;;;;;3.78;2.90;;;21.40;90.10;;;;;;5094612;28;20260;-52
2022/08/11 05:05:33;;;;;;;6.43;3.28;;;21.50;90.70;;;;;;5110310;28;20203;-52
2022/08/11 05:08:41;;;;;;;6.53;2.80;;;21.60;91.10;;;;;;5109906;28;20246;-52
2022/08/11 05:11:46;;;;;;;3.30;2.72;;;22.00;90.00;;;;;;5086330;28;20935;-52
2022/08/11 05:35:24;;;;;;;7.50;3.08;;;23.80;89.20;;;;;;5108237;28;20256;-52
2022/08/11 05:58:04;;;;;;;4.95;3.08;;;22.30;90.40;;;;;;5084929;28;20231;-52
2022/08/11 06:00:42;;;;;;;3.85;3.33;;;22.10;92.00;;;;;;5113317;28;20254;-52
2022/08/11 06:03:11;;;;;;;5.18;3.38;;;21.90;92.10;;;;;;5107797;28;20208;-52
2022/08/11 06:05:41;;;;;;;5.43;3.28;;;22.10;91.90;;;;;;5094606;28;20273;-52
2022/08/11 06:08:13;;;;;;;4.43;2.95;;;22.00;91.70;;;;;;5082615;28;20201;-52
2022/08/11 06:10:43;;;;;;;4.43;3.08;;;21.90;92.20;;;;;;5092030;28;20232;-52
2022/08/11 06:13:16;;;;;;;4.07;3.22;;;21.80;92.40;;;;;;5091906;28;20208;-52
2022/08/11 06:15:46;;;;;;;3.67;2.55;;;22.60;92.10;;;;;;5092660;28;20208;-51
2022/08/11 06:18:15;;;;;;;5.97;2.88;;;22.90;91.50;;;;;;5091776;28;20661;-52
2022/08/11 06:20:47;;;;;;;4.57;2.92;;;22.70;91.80;;;;;;5092511;28;20277;-52
2022/08/11 06:23:18;;;;;;;5.95;3.15;;;23.00;92.00;;;;;;5092234;28;20265;-52
2022/08/11 06:25:46;;;;;;;5.03;2.78;;;23.60;91.80;;;;;;5092346;28;20341;-52
2022/08/11 06:28:19;;;;;;;3.20;2.90;;;24.30;90.60;;;;;;5089525;28;20204;-51
2022/08/11 06:30:49;;;;;;;5.00;2.95;;;24.80;90.60;;;;;;5091205;28;20236;-52
2022/08/11 06:33:21;;;;;;;3.85;2.70;;;25.50;90.20;;;;;;5095894;28;20811;-52
2022/08/11 06:35:59;;;;;;;3.35;2.80;;;25.90;90.00;;;;;;5111481;28;20199;-52
2022/08/11 06:38:44;;;;;;;3.00;2.65;;;26.20;87.60;;;;;;5112291;28;20203;-52
2022/08/11 06:41:33;;;;;;;4.60;3.05;;;26.50;86.40;;;;;;5112289;28;20222;-52
2022/08/11 06:44:15;;;;;;;4.75;2.75;;;26.80;87.00;;;;;;5111746;28;20204;-52
2022/08/11 06:46:46;;;;;;;3.75;2.40;;;27.10;87.10;;;;;;5112037;28;20196;-52
2022/08/11 06:52:04;;;;;;;5.90;2.90;;;27.70;86.30;;;;;;5112073;28;20203;-52
2022/08/11 06:54:35;;;;;;;3.90;2.55;;;27.80;83.70;;;;;;5108772;28;20196;-52
2022/08/11 07:02:49;;;;;;;5.40;2.92;;;28.40;81.60;;;;;;5111609;28;20207;-52
2022/08/11 07:05:28;;;;;;;4.32;2.90;;;28.60;81.60;;;;;;5108242;28;20200;-52
2022/08/11 07:17:22;;;;;;;3.85;2.70;;;29.40;78.20;;;;;;5105286;28;20223;-52
2022/08/11 07:31:16;;;;;;;4.97;2.70;;;29.70;74.30;;;;;;5111213;28;20223;-53
2022/08/11 07:33:49;;;;;;;3.90;2.97;;;29.60;75.80;;;;;;5097649;28;20204;-53
2022/08/11 07:36:39;;;;;;;3.90;2.97;;;29.80;73.60;;;;;;5111261;28;20208;-53
2022/08/11 07:39:15;;;;;;;4.75;2.58;;;30.00;76.10;;;;;;5111087;28;20196;-53
2022/08/11 07:41:43;;;;;;;3.42;2.70;;;30.20;75.30;;;;;;5111115;28;20235;-53
2022/08/11 07:44:15;;;;;;;4.40;2.85;;;30.30;74.30;;;;;;5111396;28;20253;-52
2022/08/11 07:52:32;;;;;;;6.15;2.90;;;30.40;74.00;;;;;;5111012;28;20265;-53
2022/08/11 07:55:03;;;;;;;3.53;2.88;;;30.60;73.30;;;;;;5103771;28;20268;-52
2022/08/11 08:17:52;;;;;;;5.20;3.33;;;30.00;73.00;;;;;;5105817;28;20643;-53
2022/08/11 08:20:46;;;;;;;3.00;2.70;;;29.80;72.50;;;;;;5087157;28;20274;-51
2022/08/11 08:23:16;;;;;;;4.35;2.90;;;29.90;70.80;;;;;;5089343;28;20200;-52
2022/08/11 08:25:45;;;;;;;5.85;3.22;;;29.70;69.30;;;;;;5082675;28;20207;-52
2022/08/11 08:28:17;;;;;;;4.40;3.42;;;29.60;70.40;;;;;;5085720;28;20222;-52
2022/08/11 08:30:48;;;;;;;4.70;3.10;;;29.50;70.50;;;;;;5089546;28;20228;-52
2022/08/11 08:33:21;;;;;;;6.68;3.30;;;29.50;69.20;;;;;;5094751;28;20205;-52
2022/08/11 08:36:10;;;;;;;3.88;3.13;;;29.40;68.40;;;;;;5109092;28;20207;-52
2022/08/11 08:38:42;;;;;;;5.95;3.08;;;29.40;67.40;;;;;;5109757;28;20231;-52
2022/08/11 08:41:11;;;;;;;5.13;2.97;;;29.30;66.20;;;;;;5110146;28;20223;-52
2022/08/11 08:43:45;;;;;;;5.22;3.30;;;29.40;68.60;;;;;;5109543;28;20664;-53
2022/08/11 08:46:19;;;;;;;6.05;3.17;;;29.40;67.90;;;;;;5110131;28;20210;-52
2022/08/11 08:48:47;;;;;;;8.15;3.00;;;29.40;69.20;;;;;;5097837;28;20881;-53
2022/08/11 08:51:36;;;;;;;4.75;2.97;;;29.40;68.40;;;;;;5086177;28;20441;-52
2022/08/11 08:54:32;;;;;;;3.22;2.90;;;29.30;67.90;;;;;;5087226;28;20298;-53
2022/08/11 08:57:04;;;;;;;7.00;3.60;;;29.30;69.50;;;;;;5089684;28;20200;-52
2022/08/11 08:59:35;;;;;;;5.10;3.20;;;29.30;66.50;;;;;;5089150;28;20218;-51
2022/08/11 09:02:18;;;;;;;6.45;3.15;;;29.00;66.20;;;;;;5089351;28;20291;-52
2022/08/11 09:05:02;;;;;;;4.65;3.33;;;28.80;63.10;;;;;;5089430;28;20303;-52
2022/08/11 09:07:32;;;;;;;5.43;3.13;;;28.80;63.60;;;;;;5088996;28;20227;-52
2022/08/11 09:10:10;;;;;;;7.75;3.40;;;28.70;64.80;;;;;;5088656;28;20255;-52
2022/08/11 09:12:41;;;;;;;4.75;3.10;;;28.80;66.70;;;;;;5088921;28;20679;-52
2022/08/11 09:15:11;;;;;;;3.92;2.97;;;28.90;64.70;;;;;;5089249;28;20827;-52
2022/08/11 09:17:43;;;;;;;5.50;3.00;;;29.00;64.80;;;;;;5089113;28;20243;-52
2022/08/11 09:20:13;;;;;;;6.95;2.83;;;28.90;65.50;;;;;;5089221;28;20231;-52
2022/08/11 09:28:43;;;;;;;6.78;3.63;;;28.60;63.40;;;;;;5080407;28;20587;-53
2022/08/11 09:31:12;;;;;;;3.70;2.78;;;28.60;62.70;;;;;;5089163;28;20228;-52
2022/08/11 09:33:43;;;;;;;4.85;3.00;;;28.70;65.50;;;;;;5087342;28;20258;-52
2022/08/11 09:41:50;;;;;;;3.30;2.80;;;28.70;62.10;;;;;;5069966;28;20240;-52
2022/08/11 09:44:49;;;;;;;4.53;3.10;;;28.60;61.20;;;;;;5075360;28;20207;-53
2022/08/11 09:47:23;;;;;;;7.10;3.47;;;28.50;61.00;;;;;;5087811;28;20212;-51
2022/08/11 09:49:55;;;;;;;5.78;3.10;;;28.60;61.80;;;;;;5088786;28;20777;-52
2022/08/11 09:52:24;;;;;;;9.85;3.90;;;28.60;61.60;;;;;;5089283;28;20208;-52
2022/08/11 09:54:54;;;;;;;6.15;3.58;;;28.60;59.90;;;;;;5089120;28;20325;-52
2022/08/11 10:00:13;;;;;;;5.88;2.90;;;28.60;63.20;;;;;;5089657;28;20228;-52
2022/08/11 10:02:45;;;;;;;5.78;3.50;;;28.60;60.80;;;;;;5088437;28;20208;-52
2022/08/11 10:08:03;;;;;;;5.70;3.08;;;28.40;60.10;;;;;;5088428;28;20200;-52
2022/08/11 10:10:35;;;;;;;6.63;3.10;;;28.30;59.60;;;;;;5088818;28;20228;-52
2022/08/11 10:13:08;;;;;;;3.90;3.20;;;28.30;59.30;;;;;;5086137;28;20673;-52
2022/08/11 10:15:57;;;;;;;13.20;3.63;;;28.30;60.60;;;;;;5088851;28;20296;-52
2022/08/11 10:18:48;;;;;;;6.80;3.20;;;28.40;61.20;;;;;;5087562;28;20228;-52
2022/08/11 10:21:27;;;;;;;8.20;3.35;;;28.30;59.50;;;;;;5092547;28;20576;-52
2022/08/11 10:26:59;;;;;;;3.53;3.17;;;28.10;58.50;;;;;;5092434;28;20340;-52
2022/08/11 10:35:27;;;;;;;4.63;3.13;;;28.20;58.90;;;;;;5104519;28;20203;-52
2022/08/11 10:37:56;;;;;;;5.88;3.50;;;28.20;59.80;;;;;;5112734;28;20204;-52
2022/08/11 10:40:39;;;;;;;3.67;3.38;;;28.30;62.10;;;;;;5111771;28;20227;-52
2022/08/11 10:43:12;;;;;;;4.30;2.95;;;28.30;64.50;;;;;;5112313;28;20207;-52
2022/08/11 10:48:37;;;;;;;4.55;3.28;;;28.30;60.10;;;;;;5112039;28;20204;-51
2022/08/11 10:51:13;;;;;;;3.58;3.28;;;28.20;63.00;;;;;;5111932;28;20700;-52
2022/08/11 10:59:18;;;;;;;8.23;3.60;;;28.40;63.20;;;;;;5109350;28;20227;-52
2022/08/11 11:01:48;;;;;;;6.03;3.17;;;28.40;61.90;;;;;;5091818;28;20212;-51
2022/08/11 11:04:18;;;;;;;6.90;3.33;;;28.40;62.60;;;;;;5091024;28;20281;-51
2022/08/11 11:06:53;;;;;;;5.50;3.10;;;28.30;63.70;;;;;;5091981;28;20343;-52
2022/08/11 11:09:28;;;;;;;7.53;3.63;;;28.40;63.60;;;;;;5091172;28;20249;-52
2022/08/11 11:18:00;;;;;;;4.30;3.40;;;28.40;64.20;;;;;;5090698;28;20212;-52
2022/08/11 11:20:35;;;;;;;5.20;3.20;;;28.50;61.20;;;;;;5090640;28;20231;-52
2022/08/11 11:23:12;;;;;;;6.95;3.65;;;28.50;63.40;;;;;;5091577;28;20201;-52
2022/08/11 11:26:18;;;;;;;4.93;3.08;;;28.50;62.00;;;;;;5090685;28;20258;-53
2022/08/11 11:29:19;;;;;;;4.68;3.22;;;28.50;61.30;;;;;;5091087;28;20254;-52
2022/08/11 11:31:57;;;;;;;7.63;3.45;;;28.50;61.70;;;;;;5079140;28;20205;-52
2022/08/11 11:34:45;;;;;;;6.20;3.13;;;28.40;61.30;;;;;;5101328;28;20227;-53
2022/08/11 11:37:22;;;;;;;4.63;3.25;;;28.60;61.70;;;;;;5096270;28;20276;-52
2022/08/11 11:39:51;;;;;;;5.55;2.80;;;28.60;60.80;;;;;;5109978;28;20227;-52
2022/08/11 11:42:20;;;;;;;5.47;3.13;;;28.60;59.80;;;;;;5110764;28;20595;-54
2022/08/11 11:44:49;;;;;;;5.57;3.25;;;28.60;59.80;;;;;;5111226;28;20234;-53
2022/08/11 11:47:23;;;;;;;5.25;3.20;;;28.60;59.70;;;;;;5107657;28;20239;-53
2022/08/11 11:49:53;;;;;;;6.63;3.08;;;28.60;62.60;;;;;;5088069;28;20232;-52
2022/08/11 11:52:23;;;;;;;7.40;3.38;;;28.60;61.40;;;;;;5090599;28;20208;-52
2022/08/11 11:54:55;;;;;;;4.32;3.38;;;28.70;61.10;;;;;;5089885;28;20622;-52
2022/08/11 12:03:13;;;;;;;4.75;3.22;;;28.50;60.70;;;;;;5087003;28;20618;-52
2022/08/11 12:05:44;;;;;;;4.68;3.03;;;28.50;61.70;;;;;;5089556;28;20208;-52
2022/08/11 12:08:15;;;;;;;4.60;3.20;;;28.60;63.50;;;;;;5097023;28;20629;-53
2022/08/11 12:10:45;;;;;;;4.80;3.45;;;28.70;63.00;;;;;;5079003;28;20331;-53
2022/08/11 12:16:02;;;;;;;4.10;3.50;;;28.70;62.80;;;;;;5080276;28;20207;-52
2022/08/11 12:18:53;;;;;;;5.57;3.33;;;28.70;61.90;;;;;;5088913;28;20251;-52
2022/08/11 12:21:23;;;;;;;6.25;3.10;;;28.80;61.00;;;;;;5089809;28;20228;-52
2022/08/11 12:29:45;;;;;;;4.35;3.00;;;28.60;59.30;;;;;;5079960;28;20223;-52
2022/08/11 12:32:23;;;;;;;5.45;3.83;;;28.60;59.50;;;;;;5093991;28;20566;-54
2022/08/11 12:34:51;;;;;;;5.88;3.50;;;28.70;58.50;;;;;;5100890;28;20298;-53
2022/08/11 12:37:28;;;;;;;6.68;3.72;;;28.70;58.40;;;;;;5110048;28;20207;-52
2022/08/11 12:46:08;;;;;;;4.78;3.25;;;28.70;59.00;;;;;;5109322;28;20199;-53
2022/08/11 12:54:50;;;;;;;4.85;3.30;;;28.70;58.70;;;;;;5104692;28;20259;-52
2022/08/11 13:05:44;;;;;;;6.10;3.17;;;28.60;59.80;;;;;;5104406;28;20203;-52
2022/08/11 13:08:13;;;;;;;4.03;3.47;;;28.70;59.90;;;;;;5109057;28;20211;-53
2022/08/11 13:13:31;;;;;;;4.38;3.25;;;28.80;59.70;;;;;;5109499;28;20200;-52
2022/08/11 13:16:21;;;;;;;4.05;3.65;;;28.90;58.30;;;;;;5108819;28;20767;-52
2022/08/11 13:18:51;;;;;;;4.38;3.78;;;28.80;58.60;;;;;;5103420;28;20209;-52
2022/08/11 13:21:22;;;;;;;4.90;3.38;;;28.80;58.70;;;;;;5105499;28;20231;-52
2022/08/11 13:23:53;;;;;;;5.88;3.40;;;28.70;59.20;;;;;;5109525;28;20549;-52
2022/08/11 13:26:34;;;;;;;5.38;3.40;;;28.70;59.70;;;;;;5109384;28;20207;-52
2022/08/11 13:29:19;;;;;;;6.95;3.33;;;28.80;58.90;;;;;;5103946;28;20252;-52
2022/08/11 13:31:48;;;;;;;4.10;3.00;;;28.90;58.70;;;;;;5108921;28;20233;-52
2022/08/11 13:34:18;;;;;;;6.78;3.50;;;28.80;59.40;;;;;;5100004;28;20225;-52
2022/08/11 13:36:49;;;;;;;3.65;3.10;;;28.80;59.50;;;;;;5108818;28;20317;-52
2022/08/11 13:39:17;;;;;;;6.30;3.17;;;28.80;59.60;;;;;;5109359;28;20196;-52
2022/08/11 13:41:48;;;;;;;8.70;4.55;;;28.80;60.30;;;;;;5108846;28;20708;-52
2022/08/11 13:44:17;;;;;;;4.75;3.50;;;28.80;59.20;;;;;;5108819;28;20268;-52
2022/08/11 13:46:54;;;;;;;4.15;3.63;;;28.80;58.50;;;;;;5105744;28;20588;-51
2022/08/11 13:49:23;;;;;;;6.22;3.28;;;28.80;58.90;;;;;;5108969;28;20253;-51
2022/08/11 13:51:54;;;;;;;7.43;4.13;;;28.70;59.10;;;;;;5109300;28;20264;-52
2022/08/11 13:54:25;;;;;;;4.30;3.30;;;28.70;59.90;;;;;;5098260;28;20624;-52
2022/08/11 13:56:57;;;;;;;6.82;3.72;;;28.80;58.80;;;;;;5096327;28;20599;-52
2022/08/11 13:59:26;;;;;;;5.72;3.30;;;28.80;58.30;;;;;;5108594;28;20302;-53
2022/08/11 14:02:02;;;;;;;5.63;3.42;;;28.80;57.60;;;;;;5113725;28;20207;-52
2022/08/11 14:04:55;;;;;;;7.13;3.42;;;28.80;59.40;;;;;;5112751;28;20210;-51
2022/08/11 14:07:25;;;;;;;4.18;3.10;;;28.80;58.20;;;;;;5113257;28;20260;-53
2022/08/11 14:09:58;;;;;;;6.38;3.30;;;28.70;58.70;;;;;;5080467;28;20273;-51
2022/08/11 14:15:21;;;;;;;6.97;3.47;;;28.80;59.00;;;;;;5077281;28;20255;-52
2022/08/11 14:17:53;;;;;;;3.97;3.58;;;28.80;58.20;;;;;;5090924;28;20618;-52
2022/08/11 14:20:23;;;;;;;4.50;3.53;;;28.70;57.90;;;;;;5084575;28;20246;-52
2022/08/11 14:23:07;;;;;;;4.43;3.33;;;28.60;58.00;;;;;;5082282;28;20297;-53
2022/08/11 14:25:35;;;;;;;6.20;3.25;;;28.70;59.40;;;;;;5085642;28;20212;-51
2022/08/11 14:28:25;;;;;;;6.35;3.60;;;28.70;57.70;;;;;;5091857;28;20303;-52
2022/08/11 14:31:04;;;;;;;3.80;3.17;;;28.70;57.90;;;;;;5091796;28;20231;-52
2022/08/11 14:33:33;;;;;;;6.68;3.30;;;28.60;58.40;;;;;;5096585;28;20681;-52
2022/08/11 14:36:24;;;;;;;5.32;3.75;;;28.60;58.60;;;;;;5112702;28;20657;-52
2022/08/11 14:38:53;;;;;;;6.43;3.33;;;28.70;58.30;;;;;;5111996;28;20215;-51
2022/08/11 14:47:23;;;;;;;6.20;3.30;;;28.60;57.20;;;;;;5071031;28;20207;-52
2022/08/11 14:49:55;;;;;;;3.97;3.42;;;28.60;57.30;;;;;;5111892;28;20296;-51
2022/08/11 14:52:38;;;;;;;5.82;3.35;;;28.60;57.60;;;;;;5112060;28;20219;-52
2022/08/11 14:57:56;;;;;;;4.68;3.38;;;28.70;56.70;;;;;;5112139;28;20258;-52
2022/08/11 15:00:26;;;;;;;3.75;3.20;;;28.70;56.90;;;;;;5107502;28;20235;-52
2022/08/11 15:03:09;;;;;;;4.28;3.17;;;28.60;57.30;;;;;;5087546;28;20209;-52
2022/08/11 15:05:41;;;;;;;5.35;3.45;;;28.70;56.00;;;;;;5110829;28;20203;-52
2022/08/11 15:12:07;;;;;;;4.93;3.30;;;28.70;55.70;;;;;;5110377;28;20238;-52
2022/08/11 15:14:01;;;;;;;3.97;3.25;;;28.60;56.30;;;;;;5110761;28;20212;-52
2022/08/11 15:19:19;;;;;;;6.18;3.45;;;28.70;58.20;;;;;;5101096;28;20937;-52
2022/08/11 15:24:35;;;;;;;5.65;3.33;;;28.70;57.80;;;;;;5107256;28;20203;-52
2022/08/11 15:38:44;;;;;;;4.40;3.40;;;28.60;58.30;;;;;;5111201;28;20273;-52
2022/08/11 15:47:16;;;;;;;5.15;3.45;;;28.50;58.00;;;;;;5110656;28;20298;-52
2022/08/11 15:49:50;;;;;;;6.13;3.15;;;28.40;57.80;;;;;;5110600;28;20227;-52
2022/08/11 15:52:47;;;;;;;5.35;3.45;;;28.40;58.20;;;;;;5110507;28;20302;-52
2022/08/11 15:55:15;;;;;;;9.70;3.97;;;28.30;58.50;;;;;;5101288;28;20618;-52
2022/08/11 16:06:40;;;;;;;3.30;3.03;;;28.40;59.00;;;;;;5098591;28;20237;-52
2022/08/11 16:09:18;;;;;;;5.93;3.50;;;28.30;58.20;;;;;;5110177;28;20299;-52
2022/08/11 16:11:48;;;;;;;4.55;3.70;;;28.20;57.90;;;;;;5110329;28;20223;-51
2022/08/11 16:17:05;;;;;;;5.70;3.50;;;28.10;59.00;;;;;;5108991;28;20207;-52
2022/08/11 16:19:36;;;;;;;4.00;3.63;;;28.10;59.40;;;;;;5100657;28;20204;-52
2022/08/11 16:22:10;;;;;;;7.78;3.60;;;28.20;59.40;;;;;;5110533;28;20292;-51
2022/08/11 16:24:43;;;;;;;6.05;3.90;;;28.20;59.40;;;;;;5109575;28;20248;-52
2022/08/11 16:27:35;;;;;;;5.38;3.13;;;28.10;59.60;;;;;;5107722;28;20219;-52
2022/08/11 16:30:05;;;;;;;6.53;3.63;;;28.10;59.70;;;;;;5109571;28;20727;-52
2022/08/11 16:32:35;;;;;;;5.32;3.25;;;28.10;59.40;;;;;;5107097;28;20652;-52
2022/08/11 16:40:42;;;;;;;5.95;3.63;;;27.90;59.30;;;;;;5110155;28;20224;-52
2022/08/11 16:49:03;;;;;;;7.22;3.13;;;27.90;58.90;;;;;;5092790;28;20251;-52
2022/08/11 16:51:32;;;;;;;5.57;3.20;;;27.90;59.20;;;;;;5108616;28;20227;-52
2022/08/11 16:54:01;;;;;;;4.00;3.50;;;27.80;58.90;;;;;;5108951;28;20296;-52
2022/08/11 16:56:36;;;;;;;6.15;3.10;;;27.80;59.20;;;;;;5097486;28;20204;-52
2022/08/11 16:59:13;;;;;;;5.93;3.35;;;27.80;59.40;;;;;;5109380;28;20264;-52
2022/08/11 17:01:45;;;;;;;7.97;3.53;;;27.80;59.00;;;;;;5105198;28;20575;-53
2022/08/11 17:13:25;;;;;;;3.80;3.33;;;27.50;59.70;;;;;;5088901;28;20598;-52
2022/08/11 17:16:10;;;;;;;3.70;2.90;;;27.50;59.70;;;;;;5087819;28;20585;-52
2022/08/11 17:18:51;;;;;;;6.75;3.35;;;27.40;59.70;;;;;;5088373;28;20767;-52
2022/08/11 17:21:22;;;;;;;5.20;3.05;;;27.40;60.00;;;;;;5088118;28;20258;-52
2022/08/11 17:23:53;;;;;;;5.10;3.67;;;27.30;60.40;;;;;;5088090;28;20722;-52
2022/08/11 17:26:52;;;;;;;3.85;2.95;;;27.30;60.60;;;;;;5088370;28;20732;-52
2022/08/11 17:29:18;;;;;;;6.20;3.13;;;27.30;60.50;;;;;;5090943;28;20208;-52
2022/08/11 17:37:31;;;;;;;3.15;2.83;;;27.10;61.10;;;;;;5112911;28;20207;-52
2022/08/11 17:40:02;;;;;;;5.75;3.30;;;27.00;60.50;;;;;;5112986;28;20238;-52
2022/08/11 17:50:54;;;;;;;5.70;3.20;;;26.90;61.10;;;;;;5112655;28;20272;-51
2022/08/11 18:05:06;;;;;;;7.43;3.53;;;26.50;62.90;;;;;;5049235;28;20248;-52
